createdAt,value
2023-04-17T00:01:32.832Z,0.56
2023-04-17T00:13:33.282Z,0.35
2023-04-17T00:25:33.713Z,0.17
2023-04-17T00:37:34.174Z,0.47
2023-04-17T00:49:35.034Z,0.19
2023-04-17T01:01:35.131Z,0.23
2023-04-17T01:13:35.547Z,0.16
2023-04-17T01:25:36.039Z,0.08
2023-04-17T01:37:36.415Z,0.50
2023-04-17T01:49:36.870Z,0.11
2023-04-17T02:01:37.443Z,0.42
2023-04-17T02:13:37.824Z,0.33
2023-04-17T02:25:38.249Z,0.37
2023-04-17T02:37:38.685Z,0.15
2023-04-17T02:49:39.140Z,0.17
2023-04-17T03:01:39.659Z,0.81
2023-04-17T03:13:40.061Z,0.31
2023-04-17T03:25:40.550Z,0.34
2023-04-17T03:37:40.965Z,0.92
2023-04-17T03:49:41.477Z,0.73
2023-04-17T04:01:41.849Z,0.23
2023-04-17T04:13:42.304Z,0.69
2023-04-17T04:25:42.823Z,0.45
2023-04-17T04:37:43.240Z,0.88
2023-04-17T04:49:43.760Z,0.03
2023-04-17T05:01:44.251Z,0.10
2023-04-17T05:13:44.580Z,1.73
2023-04-17T05:25:45.075Z,0.50
2023-04-17T05:37:45.551Z,1.40
2023-04-17T05:49:45.979Z,1.41
2023-04-17T06:01:46.448Z,1.19
2023-04-17T06:13:46.947Z,1.68
2023-04-17T06:25:47.274Z,3.01
2023-04-17T06:37:47.774Z,2.75
2023-04-17T06:49:48.195Z,2.60
2023-04-17T07:01:48.677Z,2.45
2023-04-17T07:13:49.104Z,3.65
2023-04-17T07:25:49.613Z,1.87
2023-04-17T07:37:49.992Z,4.53
2023-04-17T07:49:50.507Z,3.56
2023-04-17T08:01:50.987Z,5.79
2023-04-17T08:13:51.364Z,3.31
2023-04-17T08:25:51.816Z,4.76
2023-04-17T08:37:52.286Z,4.45
2023-04-17T08:49:52.716Z,3.34
2023-04-17T09:01:53.266Z,4.69
2023-04-17T09:13:53.635Z,5.97
2023-04-17T09:25:54.152Z,5.18
2023-04-17T09:37:54.522Z,4.98
2023-04-17T09:49:54.982Z,7.53
2023-04-17T10:22:26.663Z,4.41
2023-04-17T10:34:27.138Z,5.10
2023-04-17T10:46:27.665Z,4.97
2023-04-17T10:58:31.662Z,5.46
2023-04-17T11:10:28.524Z,4.18
2023-04-17T11:22:28.953Z,5.00
2023-04-17T11:34:29.422Z,5.19
2023-04-17T11:46:29.985Z,4.12
2023-04-17T11:58:30.471Z,4.03
2023-04-17T12:10:30.792Z,6.99
2023-04-17T12:22:31.249Z,3.61
2023-04-17T12:34:31.690Z,5.18
2023-04-17T12:46:32.154Z,4.45
2023-04-17T13:08:48.234Z,4.60
2023-04-17T13:20:48.713Z,5.71
2023-04-17T13:32:49.197Z,4.73
2023-04-17T13:44:49.590Z,5.06
2023-04-17T13:56:50.038Z,1.73
2023-04-17T14:08:50.533Z,7.32
2023-04-17T14:20:50.920Z,2.68
2023-04-17T14:32:51.403Z,3.28
2023-04-17T14:44:51.849Z,5.03
2023-04-17T14:56:52.335Z,4.24
2023-04-17T15:08:52.831Z,2.95
2023-04-17T15:20:53.202Z,2.86
2023-04-17T15:32:53.697Z,4.68
2023-04-17T15:44:54.144Z,5.13
2023-04-17T15:56:54.554Z,1.96
2023-04-17T16:08:55.039Z,4.88
2023-04-17T16:20:55.532Z,4.50
2023-04-17T16:32:55.995Z,4.02
2023-04-17T16:44:56.403Z,6.26
2023-04-17T16:56:56.859Z,3.42
2023-04-17T17:08:57.309Z,2.94
2023-04-17T17:20:57.757Z,3.11
2023-04-17T17:32:58.196Z,4.26
2023-04-17T17:44:58.670Z,3.07
2023-04-17T17:56:59.123Z,3.53
2023-04-17T18:08:59.594Z,2.79
2023-04-17T18:21:00.033Z,1.85
2023-04-17T18:33:00.618Z,1.47
2023-04-17T18:45:00.982Z,2.08
2023-04-17T18:57:01.490Z,1.73
2023-04-17T19:09:01.829Z,1.69
2023-04-17T19:21:02.311Z,1.18
2023-04-17T19:33:02.784Z,2.67
2023-04-17T19:45:03.204Z,2.34
2023-04-17T19:57:03.635Z,2.45
2023-04-17T20:09:04.086Z,1.65
2023-04-17T20:21:04.559Z,1.69
2023-04-17T20:33:05.495Z,1.24
2023-04-17T20:45:05.446Z,1.75
2023-04-17T20:57:05.935Z,3.65
2023-04-17T21:09:06.400Z,1.68
2023-04-17T21:21:06.847Z,1.23
2023-04-17T21:33:07.267Z,3.09
2023-04-17T21:45:07.745Z,3.68
2023-04-17T21:57:08.191Z,2.22
2023-04-17T22:09:08.696Z,3.02
2023-04-17T22:21:09.082Z,2.18
2023-04-17T22:33:09.520Z,3.55
2023-04-17T22:45:10.020Z,3.30
2023-04-17T22:57:10.493Z,3.27
2023-04-17T23:09:10.907Z,4.18
2023-04-17T23:21:11.357Z,2.45
2023-04-17T23:33:11.789Z,2.25
2023-04-17T23:45:12.302Z,1.37
2023-04-17T23:57:12.703Z,2.57
